DMK weather

Don Mueang International Airport
Bangkok, Bangkok Province, Thailand

Public forecast

Using degrees Celsius for public forecast. Weather courtesy of forecast.io.

METAR (pilot weather report)

Retrieved 2019/03/23 22:30 UTC (4 minutes ago):

VTBD 232230Z 11004KT 9999 FEW20 27/26 Q1008 NOSIG

TAF (pilot weather forecast)

Retrieved 2019/03/23 18:36 UTC (4 hours ago):

TAF VTBD 231700Z 2318/2424 19008KT 9000 FEW020 BECMG 2320/2322 13005KT BECMG 2402/2404 19008KT TEMPO 2409/2415 13015G25KT 5000 TSRA FEW018CB SCT030 BKN100